KCLL - College Station/East, TX, US

Issued at 2332 UTC 31 Oct 2020
Updated at 0055 UTC 01 Nov 2020
Potential Impact None Slight Moderate High
Time0053Z 01/01Z 01/02Z 01/03Z 01/04Z 01/05Z 01/06Z 01/07Z 01/08Z 01/09Z 01/10Z 01/11Z 01/12Z 01/13Z>>
Type OBS PRVL PRVL PRVL PRVL PRVL PRVL PRVL PRVL PRVL PRVL PRVL PRVL PRVL
VIS 10 >6 >6 >6 >6 >6 >6 >6 >6 >6 >6 >6 >6 >6
CIG -- -- -- -- -- -- -- -- -- -- -- -- -- --
Cover CLR FEW FEW FEW FEW FEW FEW SCT SCT SCT SCT SCT SCT SCT
FltCat VFR VFR VFR VFR VFR VFR VFR VFR VFR VFR VFR VFR VFR VFR
WX -- -- -- -- -- -- -- -- -- -- -- -- -- --
WDir 130 140 140 140 140 140 140 VRB VRB VRB VRB VRB VRB VRB
WSpd 3 5 5 5 5 5 5 3 3 3 3 3 3 3
WGst -- -- -- -- -- -- -- -- -- -- -- -- -- --
Raw TAF
KCLL 312332Z 0100/0124 14005KT P6SM FEW250
  FM010700 VRB03KT P6SM FEW030 SCT250
  FM011600 01010G18KT P6SM FEW040 SCT250


Raw METAR
KCLL 010053Z 13003KT 10SM CLR 17/08 A3013 RMK AO2 SLP202 T01720078
KCLL 312353Z 14003KT 10SM CLR 19/07 A3011 RMK AO2 SLP194 T01940072 10239 20194 55001
KCLL 312253Z 16006KT 10SM CLR 22/07 A3010 RMK AO2 SLP191 T02220067
KCLL 312153Z 14005KT 10SM CLR 23/07 A3010 RMK AO2 SLP191 T02330067

METAR Board
Radar Display
Forecast Discussion
For situational awareness. Not to be used for flight planning purposes.